<?xml version="1.0" encoding="UTF-8" standalone="no" ?>
<gpx xmlns="http://www.topografix.com/GPX/1/1" xmlns:xsi="http://www.w3.org/2001/XMLSchema-instance" xsi:schemaLocation="http://www.topografix.com/GPX/1/1 http://www.topografix.com/GPX/1/1/gpx.xsd" version="1.1" creator="VisuGPX - https://www.visugpx.com">
  <metadata>
    <name>2023-12-07-46-espedaillac-matin</name>
    <desc><![CDATA[Randonnée de 10,5 km sans difficulté, de beaux chemins souvent bordés de murs de pierres sèches, deux dolmens croiseront votre parcours et quelques hameaux à visiter ]]></desc>
  </metadata>
  <trk>
    <name><![CDATA[--EspA-daillac-- OR-5434301-3 decembe]]></name>
    <trkseg>
      <trkpt lat="44.64104" lon="1.77377">
        <ele>352</ele>
        <time>2015-11-07T00:07:41Z</time>
      </trkpt>
      <trkpt lat="44.64037" lon="1.77362">
        <ele>354</ele>
        <time>2015-11-07T00:09:41Z</time>
      </trkpt>
      <trkpt lat="44.64012" lon="1.77308">
        <ele>357</ele>
        <time>2015-11-07T00:11:41Z</time>
      </trkpt>
      <trkpt lat="44.64006" lon="1.77225">
        <ele>361</ele>
        <time>2015-11-07T00:13:41Z</time>
      </trkpt>
      <trkpt lat="44.64006" lon="1.77087">
        <ele>366</ele>
        <time>2015-11-07T00:15:41Z</time>
      </trkpt>
      <trkpt lat="44.63973" lon="1.77057">
        <ele>365</ele>
        <time>2015-11-07T00:17:41Z</time>
      </trkpt>
      <trkpt lat="44.63884" lon="1.77059">
        <ele>362</ele>
        <time>2015-11-07T00:19:41Z</time>
      </trkpt>
      <trkpt lat="44.63835" lon="1.77062">
        <ele>358</ele>
        <time>2015-11-07T00:21:41Z</time>
      </trkpt>
      <trkpt lat="44.63783" lon="1.77036">
        <ele>355</ele>
        <time>2015-11-07T00:23:41Z</time>
      </trkpt>
      <trkpt lat="44.63762" lon="1.77001">
        <ele>354</ele>
        <time>2015-11-07T00:25:41Z</time>
      </trkpt>
      <trkpt lat="44.63689" lon="1.7698">
        <ele>350</ele>
        <time>2015-11-07T00:27:41Z</time>
      </trkpt>
      <trkpt lat="44.63641" lon="1.76959">
        <ele>348</ele>
        <time>2015-11-07T00:29:41Z</time>
      </trkpt>
      <trkpt lat="44.63615" lon="1.76928">
        <ele>349</ele>
        <time>2015-11-07T00:31:41Z</time>
      </trkpt>
      <trkpt lat="44.63557" lon="1.76939">
        <ele>346</ele>
        <time>2015-11-07T00:33:41Z</time>
      </trkpt>
      <trkpt lat="44.6356" lon="1.76862">
        <ele>350</ele>
        <time>2015-11-07T00:35:41Z</time>
      </trkpt>
      <trkpt lat="44.63528" lon="1.76795">
        <ele>350</ele>
        <time>2015-11-07T00:37:41Z</time>
      </trkpt>
      <trkpt lat="44.63495" lon="1.76742">
        <ele>350</ele>
        <time>2015-11-07T00:39:41Z</time>
      </trkpt>
      <trkpt lat="44.63455" lon="1.76647">
        <ele>356</ele>
        <time>2015-11-07T00:41:41Z</time>
      </trkpt>
      <trkpt lat="44.63424" lon="1.76586">
        <ele>361</ele>
        <time>2015-11-07T00:43:41Z</time>
      </trkpt>
      <trkpt lat="44.63324" lon="1.76415">
        <ele>375</ele>
        <time>2015-11-07T00:45:41Z</time>
      </trkpt>
      <trkpt lat="44.63253" lon="1.76264">
        <ele>372</ele>
        <time>2015-11-07T00:47:41Z</time>
      </trkpt>
      <trkpt lat="44.63204" lon="1.7614">
        <ele>365</ele>
        <time>2015-11-07T00:49:41Z</time>
      </trkpt>
      <trkpt lat="44.63143" lon="1.76011">
        <ele>361</ele>
        <time>2015-11-07T00:51:41Z</time>
      </trkpt>
      <trkpt lat="44.63095" lon="1.75882">
        <ele>358</ele>
        <time>2015-11-07T00:53:41Z</time>
      </trkpt>
      <trkpt lat="44.62948" lon="1.75578">
        <ele>341</ele>
        <time>2015-11-07T00:55:41Z</time>
      </trkpt>
      <trkpt lat="44.62911" lon="1.75513">
        <ele>339</ele>
        <time>2015-11-07T00:57:41Z</time>
      </trkpt>
      <trkpt lat="44.62811" lon="1.75252">
        <ele>327</ele>
        <time>2015-11-07T00:59:41Z</time>
      </trkpt>
      <trkpt lat="44.62765" lon="1.75325">
        <ele>326</ele>
        <time>2015-11-07T01:01:41Z</time>
      </trkpt>
      <trkpt lat="44.62713" lon="1.75689">
        <ele>321</ele>
        <time>2015-11-07T01:03:41Z</time>
      </trkpt>
      <trkpt lat="44.62685" lon="1.75797">
        <ele>321</ele>
        <time>2015-11-07T01:05:41Z</time>
      </trkpt>
      <trkpt lat="44.62545" lon="1.76076">
        <ele>320</ele>
        <time>2015-11-07T01:07:41Z</time>
      </trkpt>
      <trkpt lat="44.62447" lon="1.76505">
        <ele>320</ele>
        <time>2015-11-07T01:09:41Z</time>
      </trkpt>
      <trkpt lat="44.62441" lon="1.76681">
        <ele>321</ele>
        <time>2015-11-07T01:11:41Z</time>
      </trkpt>
      <trkpt lat="44.62432" lon="1.769">
        <ele>322</ele>
        <time>2015-11-07T01:13:41Z</time>
      </trkpt>
      <trkpt lat="44.62447" lon="1.7705">
        <ele>315</ele>
        <time>2015-11-07T01:15:41Z</time>
      </trkpt>
      <trkpt lat="44.62438" lon="1.77213">
        <ele>312</ele>
        <time>2015-11-07T01:17:41Z</time>
      </trkpt>
      <trkpt lat="44.62423" lon="1.77419">
        <ele>309</ele>
        <time>2015-11-07T01:19:41Z</time>
      </trkpt>
      <trkpt lat="44.62435" lon="1.77608">
        <ele>309</ele>
        <time>2015-11-07T01:21:41Z</time>
      </trkpt>
      <trkpt lat="44.62447" lon="1.77719">
        <ele>306</ele>
        <time>2015-11-07T01:23:41Z</time>
      </trkpt>
      <trkpt lat="44.62456" lon="1.77942">
        <ele>304</ele>
        <time>2015-11-07T01:25:41Z</time>
      </trkpt>
      <trkpt lat="44.62459" lon="1.78123">
        <ele>310</ele>
        <time>2015-11-07T01:27:41Z</time>
      </trkpt>
      <trkpt lat="44.6231" lon="1.78178">
        <ele>313</ele>
        <time>2015-11-07T01:29:41Z</time>
      </trkpt>
      <trkpt lat="44.62206" lon="1.78269">
        <ele>313</ele>
        <time>2015-11-07T01:31:41Z</time>
      </trkpt>
      <trkpt lat="44.62099" lon="1.78294">
        <ele>311</ele>
        <time>2015-11-07T01:33:41Z</time>
      </trkpt>
      <trkpt lat="44.62016" lon="1.78371">
        <ele>313</ele>
        <time>2015-11-07T01:35:41Z</time>
      </trkpt>
      <trkpt lat="44.61894" lon="1.785">
        <ele>313</ele>
        <time>2015-11-07T01:37:41Z</time>
      </trkpt>
      <trkpt lat="44.61717" lon="1.78608">
        <ele>315</ele>
        <time>2015-11-07T01:39:41Z</time>
      </trkpt>
      <trkpt lat="44.61521" lon="1.78848">
        <ele>317</ele>
        <time>2015-11-07T01:41:41Z</time>
      </trkpt>
      <trkpt lat="44.61436" lon="1.78831">
        <ele>313</ele>
        <time>2015-11-07T01:43:41Z</time>
      </trkpt>
      <trkpt lat="44.61369" lon="1.78925">
        <ele>305</ele>
        <time>2015-11-07T01:45:41Z</time>
      </trkpt>
      <trkpt lat="44.61408" lon="1.79032">
        <ele>301</ele>
        <time>2015-11-07T01:47:41Z</time>
      </trkpt>
      <trkpt lat="44.61488" lon="1.7923">
        <ele>293</ele>
        <time>2015-11-07T01:49:41Z</time>
      </trkpt>
      <trkpt lat="44.61564" lon="1.79359">
        <ele>285</ele>
        <time>2015-11-07T01:51:41Z</time>
      </trkpt>
      <trkpt lat="44.61604" lon="1.795">
        <ele>281</ele>
        <time>2015-11-07T01:53:41Z</time>
      </trkpt>
      <trkpt lat="44.61628" lon="1.79612">
        <ele>275</ele>
        <time>2015-11-07T01:55:41Z</time>
      </trkpt>
      <trkpt lat="44.61644" lon="1.79775">
        <ele>270</ele>
        <time>2015-11-07T01:57:41Z</time>
      </trkpt>
      <trkpt lat="44.61809" lon="1.79655">
        <ele>270</ele>
        <time>2015-11-07T01:59:41Z</time>
      </trkpt>
      <trkpt lat="44.61916" lon="1.79496">
        <ele>271</ele>
        <time>2015-11-07T02:01:41Z</time>
      </trkpt>
      <trkpt lat="44.62026" lon="1.79264">
        <ele>275</ele>
        <time>2015-11-07T02:03:41Z</time>
      </trkpt>
      <trkpt lat="44.62068" lon="1.79264">
        <ele>274</ele>
        <time>2015-11-07T02:05:41Z</time>
      </trkpt>
      <trkpt lat="44.62132" lon="1.79217">
        <ele>279</ele>
        <time>2015-11-07T02:07:41Z</time>
      </trkpt>
      <trkpt lat="44.62206" lon="1.79114">
        <ele>283</ele>
        <time>2015-11-07T02:09:41Z</time>
      </trkpt>
      <trkpt lat="44.6223" lon="1.79028">
        <ele>284</ele>
        <time>2015-11-07T02:11:41Z</time>
      </trkpt>
      <trkpt lat="44.62264" lon="1.78878">
        <ele>287</ele>
        <time>2015-11-07T02:13:41Z</time>
      </trkpt>
      <trkpt lat="44.62267" lon="1.78758">
        <ele>290</ele>
        <time>2015-11-07T02:15:41Z</time>
      </trkpt>
      <trkpt lat="44.62319" lon="1.78603">
        <ele>295</ele>
        <time>2015-11-07T02:17:41Z</time>
      </trkpt>
      <trkpt lat="44.62349" lon="1.78487">
        <ele>299</ele>
        <time>2015-11-07T02:19:41Z</time>
      </trkpt>
      <trkpt lat="44.62444" lon="1.78397">
        <ele>302</ele>
        <time>2015-11-07T02:21:41Z</time>
      </trkpt>
      <trkpt lat="44.62459" lon="1.7832">
        <ele>306</ele>
        <time>2015-11-07T02:23:41Z</time>
      </trkpt>
      <trkpt lat="44.62508" lon="1.78221">
        <ele>309</ele>
        <time>2015-11-07T02:25:41Z</time>
      </trkpt>
      <trkpt lat="44.62554" lon="1.78166">
        <ele>310</ele>
        <time>2015-11-07T02:27:41Z</time>
      </trkpt>
      <trkpt lat="44.62609" lon="1.78041">
        <ele>315</ele>
        <time>2015-11-07T02:29:41Z</time>
      </trkpt>
      <trkpt lat="44.62679" lon="1.77981">
        <ele>316</ele>
        <time>2015-11-07T02:31:41Z</time>
      </trkpt>
      <trkpt lat="44.62743" lon="1.77891">
        <ele>320</ele>
        <time>2015-11-07T02:33:41Z</time>
      </trkpt>
      <trkpt lat="44.62924" lon="1.77723">
        <ele>323</ele>
        <time>2015-11-07T02:35:41Z</time>
      </trkpt>
      <trkpt lat="44.63033" lon="1.77548">
        <ele>322</ele>
        <time>2015-11-07T02:37:41Z</time>
      </trkpt>
      <trkpt lat="44.63174" lon="1.77432">
        <ele>330</ele>
        <time>2015-11-07T02:39:41Z</time>
      </trkpt>
      <trkpt lat="44.63281" lon="1.77299">
        <ele>332</ele>
        <time>2015-11-07T02:41:41Z</time>
      </trkpt>
      <trkpt lat="44.63372" lon="1.77264">
        <ele>333</ele>
        <time>2015-11-07T02:43:41Z</time>
      </trkpt>
      <trkpt lat="44.63531" lon="1.77256">
        <ele>341</ele>
        <time>2015-11-07T02:45:41Z</time>
      </trkpt>
      <trkpt lat="44.63553" lon="1.77367">
        <ele>338</ele>
        <time>2015-11-07T02:47:41Z</time>
      </trkpt>
      <trkpt lat="44.63614" lon="1.77457">
        <ele>336</ele>
        <time>2015-11-07T02:49:41Z</time>
      </trkpt>
      <trkpt lat="44.63742" lon="1.77449">
        <ele>336</ele>
        <time>2015-11-07T02:51:41Z</time>
      </trkpt>
      <trkpt lat="44.63791" lon="1.77427">
        <ele>338</ele>
        <time>2015-11-07T02:53:41Z</time>
      </trkpt>
      <trkpt lat="44.63837" lon="1.77432">
        <ele>339</ele>
        <time>2015-11-07T02:55:41Z</time>
      </trkpt>
      <trkpt lat="44.63876" lon="1.77389">
        <ele>344</ele>
        <time>2015-11-07T02:57:41Z</time>
      </trkpt>
      <trkpt lat="44.63934" lon="1.77432">
        <ele>345</ele>
        <time>2015-11-07T02:59:41Z</time>
      </trkpt>
      <trkpt lat="44.63971" lon="1.77346">
        <ele>353</ele>
        <time>2015-11-07T03:01:41Z</time>
      </trkpt>
    </trkseg>
  </trk>
</gpx>